Time;durP1;ratioP1;P1;durP2;ratioP2;P2;SDS_P1;SDS_P2;PMS_P1;PMS_P2;Temp;Humidity;BMP_temperature;BMP_pressure;BME280_temperature;BME280_humidity;BME280_pressure;Samples;Min_cycle;Max_cycle;Signal;HPM_P1;HPM_P2
2022/04/06 00:01:20;;;;;;;0.57;0.57;;;10.10;99.90;;;;;;5224139;28;20302;-80
2022/04/06 00:04:48;;;;;;;0.80;0.80;;;10.20;99.90;;;;;;5229263;28;20024;-80
2022/04/06 00:08:22;;;;;;;0.70;0.70;;;10.10;99.90;;;;;;5184260;28;20061;-80
2022/04/06 00:11:49;;;;;;;0.60;0.60;;;10.10;99.90;;;;;;5201230;28;20029;-79
2022/04/06 00:15:15;;;;;;;0.77;0.77;;;10.00;99.90;;;;;;5192292;28;20040;-79
2022/04/06 00:18:41;;;;;;;0.75;0.75;;;10.10;99.90;;;;;;5181672;28;20060;-81
2022/04/06 00:22:08;;;;;;;0.70;0.70;;;10.20;99.90;;;;;;5182405;28;20056;-79
2022/04/06 00:25:32;;;;;;;0.70;0.70;;;10.20;99.90;;;;;;5198984;28;20045;-78
2022/04/06 00:28:59;;;;;;;0.60;0.60;;;10.30;99.90;;;;;;5200163;28;20033;-77
2022/04/06 00:32:23;;;;;;;0.60;0.60;;;10.30;99.90;;;;;;5181777;28;20380;-78
2022/04/06 00:35:48;;;;;;;0.60;0.60;;;10.30;99.90;;;;;;5181801;28;20175;-77
2022/04/06 00:39:17;;;;;;;0.73;0.73;;;10.40;99.90;;;;;;5181484;28;20045;-79
2022/04/06 00:42:43;;;;;;;0.80;0.80;;;10.50;99.90;;;;;;5195850;28;20048;-80
2022/04/06 00:46:13;;;;;;;0.70;0.70;;;10.40;99.90;;;;;;5199926;28;20327;-79
2022/04/06 00:49:37;;;;;;;0.80;0.80;;;10.30;99.90;;;;;;5215014;28;20038;-79
2022/04/06 00:53:01;;;;;;;0.75;0.75;;;10.30;99.90;;;;;;5173056;28;20049;-79
2022/04/06 00:56:33;;;;;;;0.70;0.70;;;10.40;99.90;;;;;;5223105;28;20051;-77
2022/04/06 01:00:01;;;;;;;0.77;0.77;;;10.30;99.90;;;;;;5210066;28;20033;-80
2022/04/06 01:03:25;;;;;;;0.70;0.70;;;10.40;99.90;;;;;;5202787;28;20349;-79
2022/04/06 01:06:52;;;;;;;0.80;0.80;;;10.30;99.90;;;;;;5211664;28;20048;-80
2022/04/06 01:10:20;;;;;;;0.80;0.80;;;10.50;99.90;;;;;;5204211;28;20047;-80
2022/04/06 01:13:47;;;;;;;0.63;0.63;;;10.50;99.90;;;;;;5223851;28;20040;-77
2022/04/06 01:17:11;;;;;;;0.80;0.80;;;10.70;99.90;;;;;;5209458;28;20049;-80
2022/04/06 01:20:39;;;;;;;0.70;0.70;;;10.70;99.90;;;;;;5225947;28;20336;-77
2022/04/06 01:24:04;;;;;;;0.60;0.60;;;10.70;99.90;;;;;;5227797;28;20067;-78
2022/04/06 01:27:30;;;;;;;0.90;0.90;;;10.70;99.90;;;;;;5231266;28;20329;-79
2022/04/06 01:30:55;;;;;;;0.80;0.80;;;10.70;99.90;;;;;;5219601;28;20289;-79
2022/04/06 01:34:24;;;;;;;0.70;0.70;;;10.60;99.90;;;;;;5218835;28;20052;-80
2022/04/06 01:37:48;;;;;;;0.80;0.80;;;10.60;99.90;;;;;;5229688;28;20326;-78
2022/04/06 01:41:15;;;;;;;0.70;0.70;;;10.70;99.90;;;;;;5231846;28;20219;-79
2022/04/06 01:44:44;;;;;;;0.60;0.60;;;10.60;99.90;;;;;;5230042;28;20024;-81
2022/04/06 01:48:15;;;;;;;0.60;0.60;;;10.50;99.90;;;;;;5222248;28;20327;-79
2022/04/06 01:55:26;;;;;;;0.80;0.80;;;10.80;99.90;;;;;;5207626;28;20029;-79
2022/04/06 01:58:53;;;;;;;0.80;0.80;;;10.80;99.90;;;;;;5196189;28;20044;-78
2022/04/06 02:02:26;;;;;;;0.70;0.70;;;10.80;99.90;;;;;;5226096;28;20235;-78
2022/04/06 02:05:51;;;;;;;0.80;0.80;;;10.90;99.90;;;;;;5220675;28;20289;-75
2022/04/06 02:09:23;;;;;;;0.90;0.90;;;10.90;99.90;;;;;;5228831;28;20048;-78
2022/04/06 02:12:47;;;;;;;0.52;0.52;;;10.80;99.90;;;;;;5224799;28;20222;-80
2022/04/06 02:16:17;;;;;;;0.90;0.90;;;10.80;99.90;;;;;;5224448;28;20046;-79
2022/04/06 02:19:41;;;;;;;0.65;0.65;;;10.90;99.90;;;;;;5208371;28;20051;-79
2022/04/06 02:23:10;;;;;;;0.80;0.80;;;10.80;99.90;;;;;;5224941;28;20044;-78
2022/04/06 02:26:38;;;;;;;0.90;0.90;;;10.70;99.90;;;;;;5207293;28;20119;-79
2022/04/06 02:30:07;;;;;;;0.80;0.80;;;10.70;99.90;;;;;;5224731;28;20045;-81
2022/04/06 02:33:34;;;;;;;0.50;0.50;;;10.70;99.90;;;;;;5224629;28;20037;-81
2022/04/06 02:37:01;;;;;;;0.68;0.68;;;10.60;99.90;;;;;;5207761;28;20036;-78
2022/04/06 02:40:25;;;;;;;0.80;0.80;;;10.60;99.90;;;;;;5216041;28;20034;-81
2022/04/06 02:43:54;;;;;;;0.70;0.70;;;10.60;99.90;;;;;;5250063;28;20047;-77
2022/04/06 02:47:18;;;;;;;0.57;0.57;;;10.60;99.90;;;;;;5250127;28;20054;-78
2022/04/06 02:50:46;;;;;;;0.60;0.60;;;10.50;99.90;;;;;;5232813;28;20066;-78
2022/04/06 02:54:10;;;;;;;0.70;0.70;;;10.50;99.90;;;;;;5231824;28;20050;-81
2022/04/06 02:57:34;;;;;;;1.27;1.17;;;10.60;99.90;;;;;;5223700;28;20039;-80
2022/04/06 03:01:00;;;;;;;0.70;0.70;;;10.70;99.90;;;;;;5206814;28;20045;-78
2022/04/06 03:04:28;;;;;;;0.57;0.57;;;10.70;99.90;;;;;;5250999;28;20033;-77
2022/04/06 03:07:55;;;;;;;0.60;0.60;;;10.60;99.90;;;;;;5226984;28;20285;-78
2022/04/06 03:11:22;;;;;;;;;;;10.60;99.90;;;;;;5213150;28;20414;-79
2022/04/06 03:14:46;;;;;;;0.60;0.60;;;10.80;99.90;;;;;;5229556;28;19939;-80
2022/04/06 03:18:13;;;;;;;0.52;0.52;;;10.90;99.90;;;;;;5249946;28;20032;-78
2022/04/06 03:21:41;;;;;;;0.70;0.70;;;10.90;99.90;;;;;;5231366;28;20396;-79
2022/04/06 03:25:13;;;;;;;0.95;0.95;;;10.90;99.90;;;;;;5234455;28;20052;-79
2022/04/06 03:28:40;;;;;;;0.80;0.80;;;11.00;99.90;;;;;;5213304;28;20322;-80
2022/04/06 03:32:05;;;;;;;;;;;11.00;99.90;;;;;;5213319;28;20043;-79
2022/04/06 03:35:32;;;;;;;1.77;1.63;;;11.10;99.90;;;;;;5227187;28;19926;-80
2022/04/06 03:38:57;;;;;;;0.70;0.70;;;11.10;99.90;;;;;;5215770;28;20044;-81
2022/04/06 03:42:24;;;;;;;0.73;0.73;;;11.00;99.90;;;;;;5232387;28;20382;-78
2022/04/06 03:45:48;;;;;;;0.80;0.80;;;10.80;99.90;;;;;;5248476;28;20040;-80
2022/04/06 03:49:20;;;;;;;0.77;0.77;;;10.70;99.90;;;;;;5244127;28;20566;-80
2022/04/06 03:52:52;;;;;;;0.70;0.70;;;10.50;99.90;;;;;;5232589;28;20036;-77
2022/04/06 03:56:16;;;;;;;0.60;0.60;;;10.50;99.90;;;;;;5250197;28;20035;-79
2022/04/06 03:59:40;;;;;;;0.85;0.85;;;10.40;99.90;;;;;;5232240;28;20041;-80
2022/04/06 04:03:06;;;;;;;0.85;0.85;;;10.50;99.90;;;;;;5247569;28;20024;-78
2022/04/06 04:06:33;;;;;;;;;;;10.70;99.90;;;;;;5222696;28;20070;-75
2022/04/06 04:09:57;;;;;;;3.43;1.53;;;10.60;99.90;;;;;;5247762;28;19935;-78
2022/04/06 04:13:26;;;;;;;0.80;0.80;;;10.60;99.90;;;;;;5224224;28;20041;-80
2022/04/06 04:16:54;;;;;;;0.60;0.60;;;10.60;99.90;;;;;;5224241;28;20040;-79
2022/04/06 04:20:23;;;;;;;0.80;0.80;;;10.40;99.90;;;;;;5224469;28;20317;-78
2022/04/06 04:23:47;;;;;;;0.63;0.63;;;10.50;99.90;;;;;;5191723;28;20241;-80
2022/04/06 04:27:11;;;;;;;0.77;0.77;;;10.40;99.90;;;;;;5203721;28;20326;-79
2022/04/06 04:30:36;;;;;;;0.70;0.70;;;10.30;99.90;;;;;;5192110;28;20041;-80
2022/04/06 04:34:05;;;;;;;0.95;0.95;;;10.10;99.90;;;;;;5226658;28;20020;-78
2022/04/06 04:37:30;;;;;;;0.88;0.88;;;10.30;99.90;;;;;;5228148;28;20036;-75
2022/04/06 04:41:01;;;;;;;0.60;0.60;;;10.30;99.90;;;;;;5227250;28;20222;-76
2022/04/06 04:44:25;;;;;;;0.80;0.80;;;10.20;99.90;;;;;;5210397;28;20044;-78
2022/04/06 04:47:54;;;;;;;0.60;0.60;;;10.20;99.90;;;;;;5209348;28;20036;-80
2022/04/06 04:51:20;;;;;;;1.20;1.17;;;10.20;99.90;;;;;;5210144;28;20110;-79
2022/04/06 04:54:47;;;;;;;0.85;0.85;;;10.20;99.90;;;;;;5226378;28;20222;-78
2022/04/06 04:58:17;;;;;;;0.80;0.80;;;10.20;99.90;;;;;;5203414;28;20117;-76
2022/04/06 05:01:43;;;;;;;0.70;0.70;;;10.10;99.90;;;;;;5249332;28;20036;-78
2022/04/06 05:05:11;;;;;;;0.70;0.70;;;10.10;99.90;;;;;;5224481;28;20028;-77
2022/04/06 05:08:38;;;;;;;0.73;0.73;;;10.30;99.90;;;;;;5224000;28;20346;-78
2022/04/06 05:12:03;;;;;;;;;;;10.60;99.90;;;;;;5217435;28;20041;-75
2022/04/06 05:15:27;;;;;;;0.77;0.77;;;10.80;99.90;;;;;;5221881;28;19912;-79
2022/04/06 05:18:48;;;;;;;0.73;0.73;;;10.80;99.90;;;;;;5236536;28;20044;-81
2022/04/06 05:22:16;;;;;;;0.75;0.75;;;11.10;99.90;;;;;;5218992;28;20044;-78
2022/04/06 05:25:49;;;;;;;0.82;0.82;;;11.30;99.90;;;;;;5234539;28;20032;-79
2022/04/06 05:29:13;;;;;;;1.42;1.42;;;11.40;99.90;;;;;;5232339;28;20047;-79
2022/04/06 05:32:40;;;;;;;0.80;0.80;;;11.70;99.90;;;;;;5234702;28;20033;-80
2022/04/06 05:36:09;;;;;;;1.00;1.00;;;11.80;99.90;;;;;;5234064;28;20421;-80
2022/04/06 05:39:38;;;;;;;0.75;0.75;;;11.90;99.90;;;;;;5232284;28;20036;-78
2022/04/06 05:43:07;;;;;;;0.77;0.77;;;12.10;99.90;;;;;;5234111;28;20036;-79
2022/04/06 05:46:36;;;;;;;0.70;0.70;;;12.40;99.90;;;;;;5235931;28;20043;-79
2022/04/06 05:50:06;;;;;;;0.68;0.68;;;12.90;99.90;;;;;;5236293;28;20241;-78
2022/04/06 05:53:30;;;;;;;0.60;0.60;;;13.10;99.90;;;;;;5215095;28;20481;-78
2022/04/06 05:56:57;;;;;;;0.70;0.70;;;13.50;99.90;;;;;;5231980;28;20215;-79
2022/04/06 06:00:21;;;;;;;0.70;0.70;;;13.70;99.90;;;;;;5231561;28;20032;-79
2022/04/06 06:03:45;;;;;;;0.77;0.77;;;13.30;99.90;;;;;;5231712;28;20040;-81
2022/04/06 06:07:20;;;;;;;1.48;1.40;;;13.30;99.90;;;;;;5233365;28;20048;-80
2022/04/06 06:10:46;;;;;;;0.70;0.70;;;13.20;99.90;;;;;;5232237;28;20044;-76
2022/04/06 06:14:13;;;;;;;;;;;13.40;99.90;;;;;;5229223;28;20040;-80
2022/04/06 06:17:42;;;;;;;0.70;0.70;;;13.30;99.90;;;;;;5220911;28;19925;-77
2022/04/06 06:21:06;;;;;;;0.80;0.80;;;13.10;99.90;;;;;;5230732;28;20048;-77
2022/04/06 06:24:31;;;;;;;0.60;0.60;;;13.20;99.90;;;;;;5248572;28;20241;-78
2022/04/06 06:27:06;;;;;;;0.80;0.80;;;13.30;99.90;;;;;;5230972;28;20353;-80
2022/04/06 06:29:45;;;;;;;0.80;0.80;;;13.30;99.90;;;;;;5230721;28;20583;-78
2022/04/06 06:32:17;;;;;;;0.80;0.80;;;13.30;99.90;;;;;;5213850;28;20045;-77
2022/04/06 06:34:49;;;;;;;0.63;0.63;;;13.50;99.90;;;;;;5246506;28;20039;-79
2022/04/06 06:37:25;;;;;;;1.00;1.00;;;13.60;99.90;;;;;;5230161;28;20039;-78
2022/04/06 06:39:57;;;;;;;0.75;0.75;;;13.70;99.90;;;;;;5243984;28;20028;-79
2022/04/06 06:42:31;;;;;;;0.75;0.75;;;13.70;99.90;;;;;;5208157;28;20045;-78
2022/04/06 06:45:08;;;;;;;0.70;0.70;;;13.70;99.90;;;;;;5204695;28;20032;-79
2022/04/06 06:47:40;;;;;;;0.70;0.70;;;14.10;99.90;;;;;;5243764;28;20051;-79
2022/04/06 06:50:17;;;;;;;0.70;0.70;;;14.50;99.90;;;;;;5238173;28;20040;-79
2022/04/06 06:52:48;;;;;;;0.80;0.80;;;15.00;99.90;;;;;;5119309;28;3173535;-76
2022/04/06 06:59:23;;;;;;;0.73;0.73;;;14.90;99.90;;;;;;5250094;27;166662;-78
2022/04/06 07:01:58;;;;;;;0.80;0.80;;;15.30;99.90;;;;;;5260349;28;20043;-78
2022/04/06 07:04:29;;;;;;;;;;;15.20;99.90;;;;;;5236692;28;20053;-78
2022/04/06 07:07:02;;;;;;;0.70;0.70;;;15.30;99.90;;;;;;5243666;28;19919;-78
2022/04/06 07:09:37;;;;;;;0.68;0.68;;;15.10;99.90;;;;;;5261214;28;20017;-79
2022/04/06 07:12:10;;;;;;;0.70;0.70;;;14.70;99.90;;;;;;5247189;28;20024;-77
2022/04/06 07:14:42;;;;;;;0.60;0.60;;;14.50;99.90;;;;;;5256071;28;20037;-78
2022/04/06 07:17:19;;;;;;;0.73;0.73;;;14.60;99.90;;;;;;5257066;28;20535;-78
2022/04/06 07:19:54;;;;;;;0.70;0.70;;;14.90;99.90;;;;;;5263762;28;20039;-79
2022/04/06 07:22:38;;;;;;;0.60;0.60;;;15.20;99.90;;;;;;5264449;28;20028;-78
2022/04/06 07:25:12;;;;;;;0.65;0.65;;;15.50;99.90;;;;;;5264784;28;20511;-79
2022/04/06 07:27:44;;;;;;;0.73;0.73;;;15.70;99.90;;;;;;5264878;28;20032;-79
